KLM9E EDDH-EFHK
Flight info
| Callsign | KLM9E |
|---|---|
| Flight time | 1h 40m |
| Altitude | 35000 |
| Route | LUGEG TOSPA PIBUL MEGAR GESKA KOSMO MOSAT TIDVU EKRAL KOTAM REMSA ALAMI EVADI RUMEP NIPIB DIVAM |
| Aircraft | A339/H-VGDW/C |
Departure
| Time | 2026-04-24 11:41 |
|---|---|
| Airport | Hamburg Helmut Schmidt Airport (EDDH) |
Arrival
| Time | 2026-04-24 13:21 |
|---|---|
| Airport | Helsinki Vantaa Airport (EFHK) |
| Time | Latitude | Longitude | Altitude | Speed | Heading |
|---|---|---|---|---|---|
| 2026-04-24 11:05 | 53.62929 | 10.00270 | 48 ft | 0 kts | 110° |
| 2026-04-24 11:34 | 53.62931 | 10.00262 | 48 ft | 2 kts | 114° |
| 2026-04-24 11:34 | 53.62940 | 10.00238 | 41 ft | 2 kts | 124° |
| 2026-04-24 11:34 | 53.62949 | 10.00214 | 42 ft | 2 kts | 153° |
| 2026-04-24 11:35 | 53.62964 | 10.00201 | 42 ft | 2 kts | 162° |
| 2026-04-24 11:35 | 53.62979 | 10.00193 | 42 ft | 2 kts | 171° |
| 2026-04-24 11:35 | 53.62996 | 10.00191 | 43 ft | 2 kts | 186° |
| 2026-04-24 11:35 | 53.63006 | 10.00193 | 42 ft | 1 kts | 213° |
| 2026-04-24 11:38 | 53.62997 | 10.00184 | 48 ft | 4 kts | 213° |
| 2026-04-24 11:39 | 53.62947 | 10.00129 | 47 ft | 12 kts | 213° |
| 2026-04-24 11:39 | 53.62879 | 10.00048 | 46 ft | 12 kts | 225° |
| 2026-04-24 11:39 | 53.62838 | 9.99937 | 48 ft | 11 kts | 242° |
| 2026-04-24 11:39 | 53.62812 | 9.99835 | 48 ft | 9 kts | 256° |
| 2026-04-24 11:40 | 53.62845 | 9.99766 | 45 ft | 12 kts | 329° |
| 2026-04-24 11:40 | 53.63134 | 9.99513 | 47 ft | 81 kts | 333° |
| 2026-04-24 11:40 | 53.63819 | 9.98913 | 45 ft | 139 kts | 333° |
| 2026-04-24 11:40 | 53.64827 | 9.98058 | 108 ft | 182 kts | 329° |
| 2026-04-24 11:41 | 53.66004 | 9.97033 | 643 ft | 196 kts | 329° |
| 2026-04-24 11:41 | 53.67214 | 9.95948 | 1523 ft | 189 kts | 328° |
| 2026-04-24 11:41 | 53.68432 | 9.95130 | 2374 ft | 195 kts | 342° |
| 2026-04-24 11:41 | 53.69821 | 9.94717 | 2747 ft | 210 kts | 351° |
| 2026-04-24 11:42 | 53.71298 | 9.94566 | 3226 ft | 214 kts | 356° |
| 2026-04-24 11:42 | 53.72766 | 9.94964 | 3709 ft | 219 kts | 23° |
| 2026-04-24 11:42 | 53.73881 | 9.96684 | 4173 ft | 227 kts | 52° |
| 2026-04-24 11:42 | 53.74699 | 9.98978 | 4596 ft | 224 kts | 57° |
| 2026-04-24 11:43 | 53.75444 | 10.01316 | 4821 ft | 232 kts | 58° |
| 2026-04-24 11:43 | 53.76182 | 10.03760 | 4927 ft | 232 kts | 59° |
| 2026-04-24 11:43 | 53.76888 | 10.06217 | 4998 ft | 231 kts | 60° |
| 2026-04-24 11:43 | 53.77580 | 10.08683 | 5289 ft | 232 kts | 60° |
| 2026-04-24 11:44 | 53.78270 | 10.11166 | 5918 ft | 233 kts | 60° |
| 2026-04-24 11:44 | 53.78969 | 10.13686 | 6611 ft | 237 kts | 59° |
| 2026-04-24 11:44 | 53.79676 | 10.16210 | 7272 ft | 239 kts | 59° |
| 2026-04-24 11:44 | 53.80403 | 10.18766 | 7909 ft | 242 kts | 59° |
| 2026-04-24 11:45 | 53.81129 | 10.21300 | 8552 ft | 244 kts | 58° |
| 2026-04-24 11:45 | 53.81884 | 10.23928 | 9185 ft | 247 kts | 58° |
| 2026-04-24 11:45 | 53.82630 | 10.26526 | 9779 ft | 249 kts | 58° |
| 2026-04-24 11:45 | 53.83398 | 10.29198 | 10231 ft | 258 kts | 58° |
| 2026-04-24 11:46 | 53.84211 | 10.32006 | 10503 ft | 272 kts | 58° |
| 2026-04-24 11:46 | 53.85065 | 10.34957 | 10808 ft | 285 kts | 59° |
| 2026-04-24 11:46 | 53.85958 | 10.38068 | 11279 ft | 291 kts | 59° |
| 2026-04-24 11:46 | 53.86825 | 10.41110 | 11796 ft | 294 kts | 59° |
| 2026-04-24 11:47 | 53.87721 | 10.44278 | 12338 ft | 297 kts | 59° |
| 2026-04-24 11:47 | 53.88620 | 10.47459 | 12865 ft | 301 kts | 60° |
| 2026-04-24 11:47 | 53.89526 | 10.50667 | 13399 ft | 304 kts | 60° |
| 2026-04-24 11:47 | 53.90442 | 10.53911 | 13916 ft | 307 kts | 60° |
| 2026-04-24 11:48 | 53.91371 | 10.57198 | 14378 ft | 310 kts | 60° |
| 2026-04-24 11:48 | 53.92314 | 10.60506 | 14848 ft | 312 kts | 58° |
| 2026-04-24 11:48 | 53.93433 | 10.63656 | 15303 ft | 312 kts | 52° |
| 2026-04-24 11:48 | 53.94706 | 10.66671 | 15770 ft | 314 kts | 49° |
| 2026-04-24 11:49 | 53.96042 | 10.69568 | 16219 ft | 316 kts | 46° |
| 2026-04-24 11:49 | 53.97471 | 10.72491 | 16666 ft | 319 kts | 45° |
| 2026-04-24 11:49 | 53.98912 | 10.75318 | 17124 ft | 321 kts | 44° |
| 2026-04-24 11:49 | 54.00406 | 10.78169 | 17577 ft | 324 kts | 44° |
| 2026-04-24 11:50 | 54.01926 | 10.81013 | 18025 ft | 327 kts | 43° |
| 2026-04-24 11:50 | 54.03472 | 10.83873 | 18463 ft | 329 kts | 43° |
| 2026-04-24 11:50 | 54.05019 | 10.86714 | 18844 ft | 332 kts | 43° |
| 2026-04-24 11:50 | 54.06622 | 10.89646 | 19236 ft | 335 kts | 43° |
| 2026-04-24 11:51 | 54.08218 | 10.92561 | 19617 ft | 337 kts | 43° |
| 2026-04-24 11:51 | 54.09819 | 10.95498 | 20000 ft | 340 kts | 43° |
| 2026-04-24 11:51 | 54.11435 | 10.98467 | 20379 ft | 343 kts | 43° |
| 2026-04-24 11:51 | 54.13059 | 11.01466 | 20748 ft | 346 kts | 43° |
| 2026-04-24 11:52 | 54.14689 | 11.04484 | 21135 ft | 348 kts | 43° |
| 2026-04-24 11:52 | 54.16341 | 11.07549 | 21510 ft | 351 kts | 43° |
| 2026-04-24 11:52 | 54.17983 | 11.10601 | 21884 ft | 354 kts | 43° |
| 2026-04-24 11:52 | 54.19653 | 11.13710 | 22250 ft | 357 kts | 43° |
| 2026-04-24 11:53 | 54.21340 | 11.16856 | 22622 ft | 359 kts | 42° |
| 2026-04-24 11:53 | 54.23034 | 11.20018 | 22987 ft | 362 kts | 42° |
| 2026-04-24 11:53 | 54.24743 | 11.23211 | 23363 ft | 365 kts | 42° |
| 2026-04-24 11:53 | 54.26463 | 11.26429 | 23706 ft | 368 kts | 42° |
| 2026-04-24 11:54 | 54.28194 | 11.29676 | 24030 ft | 370 kts | 42° |
| 2026-04-24 11:54 | 54.29932 | 11.32938 | 24360 ft | 372 kts | 42° |
| 2026-04-24 11:54 | 54.31685 | 11.36230 | 24665 ft | 374 kts | 42° |
| 2026-04-24 11:54 | 54.33370 | 11.39415 | 24754 ft | 356 kts | 42° |
| 2026-04-24 11:55 | 54.34992 | 11.42497 | 24737 ft | 340 kts | 41° |
| 2026-04-24 11:55 | 54.36549 | 11.45450 | 24733 ft | 330 kts | 40° |
| 2026-04-24 11:55 | 54.38111 | 11.48335 | 24737 ft | 330 kts | 40° |
| 2026-04-24 11:55 | 54.39699 | 11.51298 | 24757 ft | 344 kts | 41° |
| 2026-04-24 11:56 | 54.41344 | 11.54421 | 24770 ft | 357 kts | 41° |
| 2026-04-24 11:56 | 54.43047 | 11.57638 | 24777 ft | 370 kts | 41° |
| 2026-04-24 11:56 | 54.44200 | 11.59815 | 24879 ft | 375 kts | 42° |
| 2026-04-24 11:56 | 54.45961 | 11.63145 | 25192 ft | 376 kts | 42° |
| 2026-04-24 11:57 | 54.47723 | 11.66490 | 25503 ft | 379 kts | 42° |
| 2026-04-24 11:57 | 54.50074 | 11.70963 | 25922 ft | 381 kts | 42° |
| 2026-04-24 11:57 | 54.51255 | 11.73212 | 26114 ft | 383 kts | 41° |
| 2026-04-24 11:57 | 54.53047 | 11.76629 | 26436 ft | 385 kts | 41° |
| 2026-04-24 11:58 | 54.54849 | 11.80064 | 26744 ft | 387 kts | 41° |
| 2026-04-24 11:58 | 54.56659 | 11.83520 | 27065 ft | 389 kts | 41° |
| 2026-04-24 11:58 | 54.58471 | 11.86982 | 27381 ft | 391 kts | 41° |
| 2026-04-24 11:58 | 54.60305 | 11.90506 | 27702 ft | 394 kts | 42° |
| 2026-04-24 11:59 | 54.62128 | 11.94053 | 28015 ft | 396 kts | 42° |
| 2026-04-24 11:59 | 54.63954 | 11.97629 | 28330 ft | 398 kts | 42° |
| 2026-04-24 11:59 | 54.65789 | 12.01241 | 28642 ft | 400 kts | 42° |
| 2026-04-24 11:59 | 54.67608 | 12.04833 | 28947 ft | 403 kts | 42° |
| 2026-04-24 12:00 | 54.69454 | 12.08492 | 29259 ft | 405 kts | 42° |
| 2026-04-24 12:00 | 54.71309 | 12.12174 | 29589 ft | 407 kts | 42° |
| 2026-04-24 12:00 | 54.73169 | 12.15870 | 29881 ft | 409 kts | 43° |
| 2026-04-24 12:00 | 54.75046 | 12.19609 | 30188 ft | 411 kts | 43° |
| 2026-04-24 12:01 | 54.76924 | 12.23355 | 30454 ft | 413 kts | 43° |
| 2026-04-24 12:01 | 54.78805 | 12.27115 | 30723 ft | 415 kts | 43° |
| 2026-04-24 12:01 | 54.80708 | 12.30925 | 30992 ft | 417 kts | 43° |
| 2026-04-24 12:01 | 54.82603 | 12.34726 | 31263 ft | 418 kts | 42° |
| 2026-04-24 12:02 | 54.84510 | 12.38556 | 31533 ft | 420 kts | 43° |
| 2026-04-24 12:02 | 54.86429 | 12.42417 | 31798 ft | 422 kts | 42° |
| 2026-04-24 12:02 | 54.88323 | 12.46234 | 32063 ft | 424 kts | 42° |
| 2026-04-24 12:02 | 54.90257 | 12.50138 | 32334 ft | 426 kts | 42° |
| 2026-04-24 12:03 | 54.92193 | 12.54053 | 32603 ft | 428 kts | 42° |
| 2026-04-24 12:03 | 54.94135 | 12.57987 | 32879 ft | 430 kts | 42° |
| 2026-04-24 12:03 | 54.96084 | 12.61942 | 33140 ft | 432 kts | 42° |
| 2026-04-24 12:03 | 54.98045 | 12.65925 | 33414 ft | 433 kts | 42° |
| 2026-04-24 12:04 | 55.00005 | 12.69929 | 33697 ft | 435 kts | 43° |
| 2026-04-24 12:04 | 55.01957 | 12.73977 | 33955 ft | 437 kts | 43° |
| 2026-04-24 12:04 | 55.03919 | 12.78052 | 34118 ft | 441 kts | 43° |
| 2026-04-24 12:04 | 55.05915 | 12.82179 | 34127 ft | 449 kts | 43° |
| 2026-04-24 12:05 | 55.09997 | 12.90597 | 34150 ft | 464 kts | 43° |
| 2026-04-24 12:05 | 55.14251 | 12.99375 | 34162 ft | 480 kts | 43° |
| 2026-04-24 12:06 | 55.16424 | 13.03871 | 34266 ft | 484 kts | 43° |
| 2026-04-24 12:06 | 55.18598 | 13.08388 | 34482 ft | 486 kts | 43° |
| 2026-04-24 12:06 | 55.20783 | 13.12941 | 34696 ft | 487 kts | 43° |
| 2026-04-24 12:06 | 55.22951 | 13.17473 | 34881 ft | 482 kts | 43° |
| 2026-04-24 12:07 | 55.27253 | 13.26492 | 35000 ft | 486 kts | 43° |
| 2026-04-24 12:07 | 55.31635 | 13.35678 | 35015 ft | 492 kts | 44° |
| 2026-04-24 12:08 | 55.36039 | 13.44956 | 35020 ft | 488 kts | 44° |
| 2026-04-24 12:08 | 55.40511 | 13.53724 | 35024 ft | 476 kts | 33° |
| 2026-04-24 12:09 | 55.45862 | 13.60522 | 35024 ft | 473 kts | 27° |
| 2026-04-24 12:09 | 55.51359 | 13.66848 | 35020 ft | 469 kts | 26° |
| 2026-04-24 12:10 | 55.56868 | 13.73017 | 35019 ft | 468 kts | 25° |
| 2026-04-24 12:11 | 55.65132 | 13.82207 | 35010 ft | 469 kts | 25° |
| 2026-04-24 12:11 | 55.70649 | 13.88362 | 34998 ft | 468 kts | 26° |
| 2026-04-24 12:12 | 55.76070 | 13.94833 | 34994 ft | 477 kts | 36° |
| 2026-04-24 12:12 | 55.80512 | 14.03813 | 34999 ft | 487 kts | 45° |
| 2026-04-24 12:13 | 55.84644 | 14.13328 | 35000 ft | 487 kts | 47° |
| 2026-04-24 12:13 | 55.88694 | 14.23011 | 34999 ft | 487 kts | 47° |
| 2026-04-24 12:14 | 55.92711 | 14.32766 | 34999 ft | 488 kts | 48° |
| 2026-04-24 12:14 | 55.96683 | 14.42491 | 34997 ft | 488 kts | 48° |
| 2026-04-24 12:15 | 56.00672 | 14.52313 | 34993 ft | 487 kts | 48° |
| 2026-04-24 12:15 | 56.04649 | 14.62150 | 34979 ft | 488 kts | 48° |
| 2026-04-24 12:16 | 56.08620 | 14.72014 | 34982 ft | 488 kts | 48° |
| 2026-04-24 12:16 | 56.12669 | 14.81743 | 34985 ft | 483 kts | 44° |
| 2026-04-24 12:17 | 56.17068 | 14.90723 | 34996 ft | 482 kts | 41° |
| 2026-04-24 12:17 | 56.21607 | 14.99646 | 34994 ft | 482 kts | 41° |
| 2026-04-24 12:18 | 56.26142 | 15.08503 | 35000 ft | 481 kts | 41° |
| 2026-04-24 12:18 | 56.30650 | 15.17311 | 34998 ft | 481 kts | 41° |
| 2026-04-24 12:19 | 56.35189 | 15.26212 | 35002 ft | 482 kts | 41° |
| 2026-04-24 12:19 | 56.39728 | 15.35137 | 34995 ft | 481 kts | 41° |
| 2026-04-24 12:20 | 56.44253 | 15.44069 | 34993 ft | 481 kts | 41° |
| 2026-04-24 12:20 | 56.48774 | 15.53028 | 34986 ft | 482 kts | 41° |
| 2026-04-24 12:21 | 56.53265 | 15.61959 | 34983 ft | 482 kts | 41° |
| 2026-04-24 12:21 | 56.57787 | 15.70983 | 34983 ft | 482 kts | 41° |
| 2026-04-24 12:22 | 56.62300 | 15.80023 | 34984 ft | 483 kts | 41° |
| 2026-04-24 12:22 | 56.66832 | 15.89135 | 34988 ft | 484 kts | 41° |
| 2026-04-24 12:23 | 56.71337 | 15.98233 | 34993 ft | 484 kts | 41° |
| 2026-04-24 12:23 | 56.75836 | 16.07351 | 34994 ft | 484 kts | 41° |
| 2026-04-24 12:24 | 56.80313 | 16.16457 | 34998 ft | 485 kts | 42° |
| 2026-04-24 12:24 | 56.84819 | 16.25662 | 34997 ft | 485 kts | 42° |
| 2026-04-24 12:25 | 56.89315 | 16.34885 | 34993 ft | 485 kts | 42° |
| 2026-04-24 12:25 | 56.93801 | 16.44120 | 34994 ft | 485 kts | 42° |
| 2026-04-24 12:26 | 56.98253 | 16.53320 | 34996 ft | 486 kts | 43° |
| 2026-04-24 12:26 | 57.02729 | 16.62613 | 34988 ft | 485 kts | 43° |
| 2026-04-24 12:27 | 57.07195 | 16.71919 | 34995 ft | 485 kts | 43° |
| 2026-04-24 12:27 | 57.11660 | 16.81259 | 34998 ft | 485 kts | 43° |
| 2026-04-24 12:28 | 57.16112 | 16.90611 | 35000 ft | 485 kts | 43° |
| 2026-04-24 12:28 | 57.20547 | 16.99969 | 35001 ft | 484 kts | 44° |
| 2026-04-24 12:29 | 57.24943 | 17.09280 | 34998 ft | 484 kts | 44° |
| 2026-04-24 12:29 | 57.29364 | 17.18688 | 34996 ft | 484 kts | 44° |
| 2026-04-24 12:30 | 57.33772 | 17.28106 | 34992 ft | 483 kts | 44° |
| 2026-04-24 12:30 | 57.38170 | 17.37544 | 34994 ft | 483 kts | 44° |
| 2026-04-24 12:31 | 57.42564 | 17.47016 | 34997 ft | 484 kts | 45° |
| 2026-04-24 12:31 | 57.46969 | 17.56462 | 34988 ft | 482 kts | 43° |
| 2026-04-24 12:32 | 57.51461 | 17.65565 | 34994 ft | 481 kts | 42° |
| 2026-04-24 12:32 | 57.56032 | 17.74677 | 34981 ft | 481 kts | 42° |
| 2026-04-24 12:33 | 57.60611 | 17.83799 | 34980 ft | 481 kts | 43° |
| 2026-04-24 12:33 | 57.65180 | 17.92932 | 34979 ft | 481 kts | 43° |
| 2026-04-24 12:34 | 57.69719 | 18.02041 | 34974 ft | 481 kts | 43° |
| 2026-04-24 12:34 | 57.74276 | 18.11225 | 34973 ft | 481 kts | 43° |
| 2026-04-24 12:35 | 57.78833 | 18.20451 | 34973 ft | 481 kts | 43° |
| 2026-04-24 12:35 | 57.83374 | 18.29683 | 34974 ft | 481 kts | 43° |
| 2026-04-24 12:36 | 57.87875 | 18.38872 | 34974 ft | 481 kts | 44° |
| 2026-04-24 12:36 | 57.92400 | 18.48148 | 34975 ft | 481 kts | 44° |
| 2026-04-24 12:37 | 57.96918 | 18.57447 | 34977 ft | 481 kts | 44° |
| 2026-04-24 12:37 | 58.01436 | 18.66788 | 34975 ft | 481 kts | 44° |
| 2026-04-24 12:38 | 58.05930 | 18.76116 | 34973 ft | 481 kts | 44° |
| 2026-04-24 12:38 | 58.10432 | 18.85496 | 34975 ft | 482 kts | 44° |
| 2026-04-24 12:39 | 58.19380 | 19.04260 | 34972 ft | 481 kts | 45° |
| 2026-04-24 12:40 | 58.23857 | 19.13708 | 34967 ft | 481 kts | 45° |
| 2026-04-24 12:40 | 58.28327 | 19.23178 | 34969 ft | 481 kts | 45° |
| 2026-04-24 12:41 | 58.32037 | 19.31070 | 34962 ft | 480 kts | 45° |
| 2026-04-24 12:41 | 58.37206 | 19.42107 | 34961 ft | 481 kts | 45° |
| 2026-04-24 12:42 | 58.40934 | 19.50100 | 34963 ft | 481 kts | 45° |
| 2026-04-24 12:42 | 58.45348 | 19.59601 | 34961 ft | 481 kts | 45° |
| 2026-04-24 12:43 | 58.49774 | 19.69167 | 34951 ft | 480 kts | 45° |
| 2026-04-24 12:43 | 58.54198 | 19.78766 | 34950 ft | 480 kts | 45° |
| 2026-04-24 12:44 | 58.58579 | 19.88312 | 34952 ft | 480 kts | 46° |
| 2026-04-24 12:44 | 58.62980 | 19.97941 | 34947 ft | 479 kts | 46° |
| 2026-04-24 12:45 | 58.67373 | 20.07593 | 34941 ft | 479 kts | 46° |
| 2026-04-24 12:45 | 58.71754 | 20.17262 | 34942 ft | 480 kts | 46° |
| 2026-04-24 12:46 | 58.76133 | 20.26967 | 34944 ft | 479 kts | 46° |
| 2026-04-24 12:46 | 58.80495 | 20.36680 | 34935 ft | 479 kts | 46° |
| 2026-04-24 12:47 | 58.84863 | 20.46440 | 34929 ft | 486 kts | 46° |
| 2026-04-24 12:47 | 58.89266 | 20.56327 | 34923 ft | 484 kts | 46° |
| 2026-04-24 12:48 | 58.93637 | 20.66192 | 34923 ft | 483 kts | 46° |
| 2026-04-24 12:48 | 58.98005 | 20.76094 | 34923 ft | 484 kts | 46° |
| 2026-04-24 12:49 | 59.02367 | 20.86052 | 34909 ft | 483 kts | 48° |
| 2026-04-24 12:49 | 59.06235 | 20.96673 | 34913 ft | 485 kts | 54° |
| 2026-04-24 12:50 | 59.09855 | 21.07743 | 34911 ft | 485 kts | 55° |
| 2026-04-24 12:50 | 59.13398 | 21.18914 | 34907 ft | 485 kts | 56° |
| 2026-04-24 12:51 | 59.16902 | 21.30117 | 34901 ft | 484 kts | 56° |
| 2026-04-24 12:51 | 59.20390 | 21.41356 | 34897 ft | 479 kts | 56° |
| 2026-04-24 12:51 | 59.22086 | 21.46857 | 34776 ft | 466 kts | 56° |
| 2026-04-24 12:52 | 59.23741 | 21.52243 | 34313 ft | 460 kts | 56° |
| 2026-04-24 12:52 | 59.25383 | 21.57586 | 33840 ft | 455 kts | 56° |
| 2026-04-24 12:52 | 59.26987 | 21.62814 | 33275 ft | 451 kts | 55° |
| 2026-04-24 12:52 | 59.28589 | 21.68054 | 32711 ft | 448 kts | 55° |
| 2026-04-24 12:53 | 59.30184 | 21.73283 | 32140 ft | 444 kts | 55° |
| 2026-04-24 12:53 | 59.31762 | 21.78465 | 31582 ft | 441 kts | 55° |
| 2026-04-24 12:53 | 59.33323 | 21.83600 | 31021 ft | 437 kts | 55° |
| 2026-04-24 12:53 | 59.34876 | 21.88712 | 30495 ft | 434 kts | 54° |
| 2026-04-24 12:54 | 59.36419 | 21.93798 | 29944 ft | 431 kts | 54° |
| 2026-04-24 12:54 | 59.37942 | 21.98833 | 29344 ft | 428 kts | 54° |
| 2026-04-24 12:54 | 59.39450 | 22.03834 | 28776 ft | 424 kts | 54° |
| 2026-04-24 12:54 | 59.40921 | 22.08721 | 28221 ft | 420 kts | 54° |
| 2026-04-24 12:55 | 59.42403 | 22.13653 | 27652 ft | 416 kts | 54° |
| 2026-04-24 12:55 | 59.43867 | 22.18531 | 27114 ft | 413 kts | 53° |
| 2026-04-24 12:55 | 59.45317 | 22.23370 | 26566 ft | 409 kts | 53° |
| 2026-04-24 12:55 | 59.46756 | 22.28184 | 26041 ft | 406 kts | 53° |
| 2026-04-24 12:56 | 59.48181 | 22.32953 | 25510 ft | 403 kts | 53° |
| 2026-04-24 12:56 | 59.49592 | 22.37688 | 25002 ft | 400 kts | 53° |
| 2026-04-24 12:56 | 59.50992 | 22.42407 | 24484 ft | 397 kts | 53° |
| 2026-04-24 12:56 | 59.52377 | 22.47090 | 23985 ft | 394 kts | 52° |
| 2026-04-24 12:57 | 59.53752 | 22.51749 | 23502 ft | 392 kts | 52° |
| 2026-04-24 12:57 | 59.55115 | 22.56377 | 22967 ft | 388 kts | 52° |
| 2026-04-24 12:57 | 59.56454 | 22.60918 | 22458 ft | 384 kts | 52° |
| 2026-04-24 12:57 | 59.57788 | 22.65449 | 21945 ft | 381 kts | 52° |
| 2026-04-24 12:58 | 59.59109 | 22.69945 | 21462 ft | 377 kts | 52° |
| 2026-04-24 12:58 | 59.60416 | 22.74405 | 20975 ft | 373 kts | 52° |
| 2026-04-24 12:58 | 59.61709 | 22.78826 | 20500 ft | 369 kts | 52° |
| 2026-04-24 12:58 | 59.62990 | 22.83213 | 20038 ft | 366 kts | 52° |
| 2026-04-24 12:59 | 59.64256 | 22.87559 | 19548 ft | 363 kts | 52° |
| 2026-04-24 12:59 | 59.65497 | 22.91827 | 19106 ft | 359 kts | 52° |
| 2026-04-24 12:59 | 59.66733 | 22.96088 | 18652 ft | 356 kts | 52° |
| 2026-04-24 12:59 | 59.67961 | 23.00330 | 18184 ft | 353 kts | 52° |
| 2026-04-24 13:00 | 59.69173 | 23.04517 | 17669 ft | 349 kts | 52° |
| 2026-04-24 13:00 | 59.70376 | 23.08685 | 17146 ft | 347 kts | 52° |
| 2026-04-24 13:00 | 59.71565 | 23.12812 | 16629 ft | 343 kts | 52° |
| 2026-04-24 13:00 | 59.72745 | 23.16913 | 16117 ft | 341 kts | 52° |
| 2026-04-24 13:01 | 59.73899 | 23.20932 | 15599 ft | 338 kts | 53° |
| 2026-04-24 13:01 | 59.75071 | 23.25013 | 15109 ft | 335 kts | 53° |
| 2026-04-24 13:01 | 59.76199 | 23.28953 | 14605 ft | 332 kts | 53° |
| 2026-04-24 13:01 | 59.77337 | 23.32933 | 14120 ft | 329 kts | 53° |
| 2026-04-24 13:02 | 59.78458 | 23.36864 | 13621 ft | 327 kts | 53° |
| 2026-04-24 13:02 | 59.79577 | 23.40787 | 13075 ft | 324 kts | 53° |
| 2026-04-24 13:02 | 59.80679 | 23.44649 | 12550 ft | 320 kts | 53° |
| 2026-04-24 13:02 | 59.81771 | 23.48487 | 12024 ft | 317 kts | 53° |
| 2026-04-24 13:03 | 59.82849 | 23.52291 | 11511 ft | 313 kts | 54° |
| 2026-04-24 13:03 | 59.83911 | 23.56038 | 11003 ft | 310 kts | 54° |
| 2026-04-24 13:03 | 59.84960 | 23.59740 | 10491 ft | 307 kts | 54° |
| 2026-04-24 13:03 | 59.86012 | 23.63458 | 10123 ft | 305 kts | 54° |
| 2026-04-24 13:04 | 59.87021 | 23.67055 | 9956 ft | 290 kts | 54° |
| 2026-04-24 13:04 | 59.87969 | 23.70477 | 9880 ft | 275 kts | 54° |
| 2026-04-24 13:04 | 59.88880 | 23.73775 | 9846 ft | 270 kts | 54° |
| 2026-04-24 13:04 | 59.89796 | 23.77061 | 9823 ft | 273 kts | 54° |
| 2026-04-24 13:05 | 59.90763 | 23.80521 | 9829 ft | 299 kts | 55° |
| 2026-04-24 13:05 | 59.91778 | 23.84203 | 9825 ft | 303 kts | 55° |
| 2026-04-24 13:05 | 59.92760 | 23.87849 | 9825 ft | 302 kts | 56° |
| 2026-04-24 13:05 | 59.93749 | 23.91561 | 9828 ft | 303 kts | 56° |
| 2026-04-24 13:06 | 59.94736 | 23.95287 | 9819 ft | 304 kts | 56° |
| 2026-04-24 13:06 | 59.95710 | 23.98985 | 9485 ft | 296 kts | 56° |
| 2026-04-24 13:06 | 59.96641 | 24.02548 | 9196 ft | 285 kts | 56° |
| 2026-04-24 13:06 | 59.97545 | 24.06016 | 8922 ft | 276 kts | 57° |
| 2026-04-24 13:07 | 59.98434 | 24.09417 | 8602 ft | 276 kts | 56° |
| 2026-04-24 13:07 | 59.99316 | 24.12782 | 8266 ft | 275 kts | 57° |
| 2026-04-24 13:07 | 60.00201 | 24.16153 | 7920 ft | 274 kts | 57° |
| 2026-04-24 13:07 | 60.01085 | 24.19529 | 7594 ft | 273 kts | 57° |
| 2026-04-24 13:08 | 60.01960 | 24.22873 | 7256 ft | 271 kts | 57° |
| 2026-04-24 13:08 | 60.02828 | 24.26203 | 6927 ft | 268 kts | 58° |
| 2026-04-24 13:08 | 60.03674 | 24.29461 | 6604 ft | 260 kts | 58° |
| 2026-04-24 13:09 | 60.05294 | 24.35730 | 5924 ft | 248 kts | 58° |
| 2026-04-24 13:09 | 60.06078 | 24.38771 | 5589 ft | 246 kts | 58° |
| 2026-04-24 13:09 | 60.06878 | 24.41847 | 5252 ft | 251 kts | 58° |
| 2026-04-24 13:09 | 60.07684 | 24.44979 | 5004 ft | 252 kts | 58° |
| 2026-04-24 13:10 | 60.08478 | 24.48076 | 4886 ft | 249 kts | 59° |
| 2026-04-24 13:10 | 60.09273 | 24.51162 | 4844 ft | 250 kts | 59° |
| 2026-04-24 13:10 | 60.10067 | 24.54262 | 4820 ft | 246 kts | 59° |
| 2026-04-24 13:10 | 60.10816 | 24.57207 | 4806 ft | 227 kts | 59° |
| 2026-04-24 13:11 | 60.11519 | 24.59984 | 4790 ft | 224 kts | 59° |
| 2026-04-24 13:11 | 60.12225 | 24.62777 | 4788 ft | 226 kts | 58° |
| 2026-04-24 13:11 | 60.12937 | 24.65545 | 4767 ft | 226 kts | 58° |
| 2026-04-24 13:11 | 60.13668 | 24.68367 | 4607 ft | 229 kts | 58° |
| 2026-04-24 13:12 | 60.14384 | 24.71165 | 4327 ft | 222 kts | 58° |
| 2026-04-24 13:12 | 60.15074 | 24.73920 | 4094 ft | 221 kts | 59° |
| 2026-04-24 13:12 | 60.15767 | 24.76660 | 3898 ft | 219 kts | 58° |
| 2026-04-24 13:12 | 60.16459 | 24.79375 | 3711 ft | 219 kts | 58° |
| 2026-04-24 13:13 | 60.17162 | 24.82091 | 3547 ft | 216 kts | 58° |
| 2026-04-24 13:13 | 60.17839 | 24.84777 | 3330 ft | 217 kts | 58° |
| 2026-04-24 13:13 | 60.18522 | 24.87496 | 3147 ft | 218 kts | 59° |
| 2026-04-24 13:13 | 60.18982 | 24.90443 | 3070 ft | 228 kts | 85° |
| 2026-04-24 13:14 | 60.18592 | 24.93496 | 3060 ft | 236 kts | 120° |
| 2026-04-24 13:14 | 60.17401 | 24.95767 | 3060 ft | 240 kts | 153° |
| 2026-04-24 13:14 | 60.15810 | 24.96761 | 3068 ft | 240 kts | 168° |
| 2026-04-24 13:14 | 60.14185 | 24.97541 | 3037 ft | 238 kts | 163° |
| 2026-04-24 13:15 | 60.12794 | 24.99264 | 3009 ft | 239 kts | 129° |
| 2026-04-24 13:15 | 60.12077 | 25.02182 | 3001 ft | 232 kts | 95° |
| 2026-04-24 13:15 | 60.12191 | 25.05337 | 2998 ft | 225 kts | 70° |
| 2026-04-24 13:15 | 60.12716 | 25.08263 | 2992 ft | 222 kts | 63° |
| 2026-04-24 13:16 | 60.13318 | 25.11101 | 2985 ft | 221 kts | 62° |
| 2026-04-24 13:16 | 60.14016 | 25.13826 | 2984 ft | 216 kts | 46° |
| 2026-04-24 13:16 | 60.15232 | 25.15438 | 3006 ft | 211 kts | 9° |
| 2026-04-24 13:16 | 60.16655 | 25.15242 | 3006 ft | 206 kts | 340° |
| 2026-04-24 13:17 | 60.17799 | 25.13700 | 2985 ft | 198 kts | 319° |
| 2026-04-24 13:17 | 60.18761 | 25.11985 | 2889 ft | 166 kts | 320° |
| 2026-04-24 13:17 | 60.19649 | 25.10525 | 2715 ft | 168 kts | 324° |
| 2026-04-24 13:17 | 60.20608 | 25.09198 | 2513 ft | 167 kts | 329° |
| 2026-04-24 13:18 | 60.21580 | 25.08071 | 2410 ft | 147 kts | 332° |
| 2026-04-24 13:18 | 60.22465 | 25.07151 | 2213 ft | 143 kts | 335° |
| 2026-04-24 13:18 | 60.23350 | 25.06271 | 2055 ft | 143 kts | 334° |
| 2026-04-24 13:18 | 60.24227 | 25.05365 | 1905 ft | 142 kts | 334° |
| 2026-04-24 13:19 | 60.25109 | 25.04492 | 1715 ft | 141 kts | 335° |
| 2026-04-24 13:19 | 60.25990 | 25.03639 | 1498 ft | 139 kts | 336° |
| 2026-04-24 13:19 | 60.26866 | 25.02785 | 1308 ft | 140 kts | 335° |
| 2026-04-24 13:19 | 60.27722 | 25.01923 | 1048 ft | 134 kts | 334° |
| 2026-04-24 13:20 | 60.28563 | 25.01091 | 782 ft | 136 kts | 333° |
| 2026-04-24 13:20 | 60.29391 | 25.00220 | 557 ft | 136 kts | 330° |
| 2026-04-24 13:20 | 60.30229 | 24.99334 | 309 ft | 137 kts | 330° |
| 2026-04-24 13:20 | 60.31067 | 24.98470 | 171 ft | 128 kts | 329° |
| 2026-04-24 13:21 | 60.31657 | 24.97843 | 161 ft | 53 kts | 335° |
| 2026-04-24 13:21 | 60.31826 | 24.97680 | 163 ft | 10 kts | 334° |
| 2026-04-24 13:21 | 60.31852 | 24.97654 | 163 ft | 0 kts | 333° |
| 2026-04-24 13:21 | 60.31918 | 24.97590 | 165 ft | 14 kts | 335° |
| 2026-04-24 13:22 | 60.32026 | 24.97480 | 164 ft | 22 kts | 332° |
| 2026-04-24 13:22 | 60.32166 | 24.97334 | 164 ft | 23 kts | 333° |
| 2026-04-24 13:22 | 60.32302 | 24.97193 | 165 ft | 20 kts | 334° |
| 2026-04-24 13:22 | 60.32377 | 24.97067 | 167 ft | 11 kts | 293° |
| 2026-04-24 13:23 | 60.32363 | 24.96936 | 167 ft | 10 kts | 236° |
| 2026-04-24 13:23 | 60.32344 | 24.96888 | 166 ft | 0 kts | 228° |
| 2026-04-24 13:24 | 60.32328 | 24.96858 | 166 ft | 3 kts | 222° |
| 2026-04-24 13:24 | 60.32277 | 24.96879 | 182 ft | 16 kts | 158° |
| 2026-04-24 13:24 | 60.32182 | 24.96969 | 166 ft | 12 kts | 165° |
| 2026-04-24 13:25 | 60.32097 | 24.96864 | 166 ft | 16 kts | 225° |
| 2026-04-24 13:25 | 60.32022 | 24.96700 | 166 ft | 16 kts | 227° |
| 2026-04-24 13:25 | 60.31938 | 24.96515 | 166 ft | 18 kts | 227° |
| 2026-04-24 13:25 | 60.31888 | 24.96414 | 166 ft | 6 kts | 222° |
| 2026-04-24 13:26 | 60.31874 | 24.96412 | 166 ft | 1 kts | 171° |
| 2026-04-24 13:26 | 60.31854 | 24.96443 | 166 ft | 5 kts | 144° |
| 2026-04-24 13:26 | 60.31851 | 24.96448 | 166 ft | 0 kts | 140° |